Time;durP1;ratioP1;P1;durP2;ratioP2;P2;SDS_P1;SDS_P2;PMS_P1;PMS_P2;Temp;Humidity;BMP_temperature;BMP_pressure;BME280_temperature;BME280_humidity;BME280_pressure;Samples;Min_cycle;Max_cycle;Signal;HPM_P1;HPM_P2
2023/04/25 00:02:09;;;;;;;93.65;32.80;;;;;;;;;;5033984;28;20133;-43
2023/04/25 00:04:37;;;;;;;88.70;31.08;;;;;;;;;;5050355;28;20072;-44
2023/04/25 00:07:04;;;;;;;97.00;30.15;;;;;;;;;;5047555;28;20060;-45
2023/04/25 00:09:31;;;;;;;80.72;29.42;;;;;;;;;;5043520;28;20751;-43
2023/04/25 00:11:58;;;;;;;81.65;31.48;;;;;;;;;;5049692;28;20033;-41
2023/04/25 00:14:25;;;;;;;98.93;31.35;;;;;;;;;;5052919;28;20047;-42
2023/04/25 00:16:53;;;;;;;89.20;34.00;;;;;;;;;;5054646;28;20379;-40
2023/04/25 00:19:20;;;;;;;99.22;32.53;;;;;;;;;;5050633;28;20033;-41
2023/04/25 00:21:47;;;;;;;97.53;30.95;;;;;;;;;;5058647;28;20399;-41
2023/04/25 00:24:15;;;;;;;88.78;32.83;;;;;;;;;;5046350;28;20037;-41
2023/04/25 00:26:42;;;;;;;80.50;31.00;;;;;;;;;;5053965;28;20040;-40
2023/04/25 00:29:09;;;;;;;104.82;31.88;;;;;;;;;;5045837;28;20487;-44
2023/04/25 00:31:35;;;;;;;94.15;29.48;;;;;;;;;;5052494;28;20479;-40
2023/04/25 00:34:02;;;;;;;90.22;29.98;;;;;;;;;;5049299;28;20037;-40
2023/04/25 00:36:30;;;;;;;78.10;29.95;;;;;;;;;;5052384;28;20415;-40
2023/04/25 00:38:57;;;;;;;86.70;30.70;;;;;;;;;;5047482;28;20044;-40
2023/04/25 00:41:26;;;;;;;78.47;29.48;;;;;;;;;;5052388;28;20060;-40
2023/04/25 00:43:54;;;;;;;82.47;28.25;;;;;;;;;;5044294;28;20450;-41
2023/04/25 00:46:21;;;;;;;79.72;29.85;;;;;;;;;;5049825;28;20029;-41
2023/04/25 00:48:48;;;;;;;87.03;31.65;;;;;;;;;;5042629;28;20041;-41
2023/04/25 00:51:17;;;;;;;85.15;28.75;;;;;;;;;;5049488;28;20025;-40
2023/04/25 00:53:44;;;;;;;93.90;29.55;;;;;;;;;;5044624;28;20116;-42
2023/04/25 00:56:11;;;;;;;86.18;29.08;;;;;;;;;;5053913;28;20040;-40
2023/04/25 00:58:38;;;;;;;79.55;26.30;;;;;;;;;;5049590;28;20033;-41
2023/04/25 01:01:06;;;;;;;87.25;29.25;;;;;;;;;;5053465;28;20032;-40
2023/04/25 01:03:40;;;;;;;83.05;29.95;;;;;;;;;;5053579;28;20483;-40
2023/04/25 01:06:11;;;;;;;88.00;29.40;;;;;;;;;;5053764;28;20491;-40
2023/04/25 01:08:39;;;;;;;83.97;29.23;;;;;;;;;;5053307;28;20039;-41
2023/04/25 01:11:06;;;;;;;83.28;27.60;;;;;;;;;;5053315;28;20036;-41
2023/04/25 01:13:34;;;;;;;74.93;25.83;;;;;;;;;;5053027;28;20353;-41
2023/04/25 01:16:01;;;;;;;83.78;27.13;;;;;;;;;;5031905;28;20051;-41
2023/04/25 01:18:28;;;;;;;83.00;26.35;;;;;;;;;;5053826;28;20033;-41
2023/04/25 01:20:55;;;;;;;87.60;27.05;;;;;;;;;;5060532;28;20035;-42
2023/04/25 01:23:23;;;;;;;88.00;27.60;;;;;;;;;;5057923;28;20033;-41
2023/04/25 01:25:50;;;;;;;69.38;24.92;;;;;;;;;;5062376;28;20082;-41
2023/04/25 01:28:17;;;;;;;65.43;23.67;;;;;;;;;;5062675;28;20028;-41
2023/04/25 01:30:45;;;;;;;80.18;25.08;;;;;;;;;;5064995;28;20036;-43
2023/04/25 01:33:13;;;;;;;73.93;25.95;;;;;;;;;;5065500;28;20045;-41
2023/04/25 01:35:40;;;;;;;82.65;24.98;;;;;;;;;;5062309;28;20035;-41
2023/04/25 01:38:07;;;;;;;67.30;24.27;;;;;;;;;;5036243;28;20431;-41
2023/04/25 01:40:34;;;;;;;73.35;23.40;;;;;;;;;;5057982;28;20064;-42
2023/04/25 01:43:01;;;;;;;62.50;23.20;;;;;;;;;;5051666;28;20551;-41
2023/04/25 01:45:28;;;;;;;63.55;23.33;;;;;;;;;;5053405;28;20037;-41
2023/04/25 01:47:59;;;;;;;71.97;24.50;;;;;;;;;;5050603;28;20049;-43
2023/04/25 01:50:26;;;;;;;55.22;22.92;;;;;;;;;;5041189;28;20127;-41
2023/04/25 01:52:54;;;;;;;63.90;23.63;;;;;;;;;;5043762;28;20025;-41
2023/04/25 01:55:21;;;;;;;66.10;23.48;;;;;;;;;;5048452;28;20422;-41
2023/04/25 01:57:48;;;;;;;61.45;22.02;;;;;;;;;;5046187;28;20124;-41
2023/04/25 02:00:15;;;;;;;66.53;22.63;;;;;;;;;;5043528;28;20032;-41
2023/04/25 02:02:42;;;;;;;62.08;21.08;;;;;;;;;;5048063;28;20094;-41
2023/04/25 02:05:09;;;;;;;60.63;21.88;;;;;;;;;;5051915;28;20032;-41
2023/04/25 02:07:36;;;;;;;74.63;22.55;;;;;;;;;;5052988;28;20021;-41
2023/04/25 02:10:03;;;;;;;62.20;20.13;;;;;;;;;;5053007;28;20049;-42
2023/04/25 02:12:30;;;;;;;72.30;22.27;;;;;;;;;;5052924;28;20051;-41
2023/04/25 02:14:57;;;;;;;65.40;20.33;;;;;;;;;;5052803;28;20475;-41
2023/04/25 02:17:24;;;;;;;61.15;20.45;;;;;;;;;;5052367;28;20025;-41
2023/04/25 02:19:51;;;;;;;62.67;21.08;;;;;;;;;;5043482;28;20064;-41
2023/04/25 02:22:18;;;;;;;57.58;21.42;;;;;;;;;;5033275;28;20387;-41
2023/04/25 02:24:45;;;;;;;66.80;21.02;;;;;;;;;;5032783;28;20034;-41
2023/04/25 02:27:12;;;;;;;63.33;21.23;;;;;;;;;;5032819;28;20394;-42
2023/04/25 02:29:39;;;;;;;59.40;20.20;;;;;;;;;;5032908;28;20029;-41
2023/04/25 02:32:06;;;;;;;63.83;20.23;;;;;;;;;;5032751;28;20025;-41
2023/04/25 02:34:33;;;;;;;60.33;20.08;;;;;;;;;;5032734;28;20033;-41
2023/04/25 02:37:00;;;;;;;53.22;19.83;;;;;;;;;;5032456;28;20052;-42
2023/04/25 02:39:27;;;;;;;49.80;19.52;;;;;;;;;;5032617;28;20029;-41
2023/04/25 02:41:54;;;;;;;51.25;19.17;;;;;;;;;;5032667;28;20033;-42
2023/04/25 02:44:21;;;;;;;51.30;18.33;;;;;;;;;;5032387;28;20487;-41
2023/04/25 02:46:48;;;;;;;51.65;18.17;;;;;;;;;;5024624;28;20036;-41
2023/04/25 02:49:15;;;;;;;51.83;19.02;;;;;;;;;;5032480;28;20383;-42
2023/04/25 02:51:42;;;;;;;50.38;18.75;;;;;;;;;;5032315;28;20034;-41
2023/04/25 02:54:09;;;;;;;56.10;17.80;;;;;;;;;;5032251;28;20488;-41
2023/04/25 02:56:36;;;;;;;50.28;17.65;;;;;;;;;;5032443;28;20056;-43
2023/04/25 02:59:03;;;;;;;52.22;17.02;;;;;;;;;;5032313;28;20027;-42
2023/04/25 03:01:30;;;;;;;46.67;16.88;;;;;;;;;;5032209;28;20083;-41
2023/04/25 03:03:57;;;;;;;48.58;17.10;;;;;;;;;;5032078;28;20068;-41
2023/04/25 03:06:24;;;;;;;48.95;17.38;;;;;;;;;;5032216;28;20035;-41
2023/04/25 03:08:51;;;;;;;43.65;16.42;;;;;;;;;;5032326;28;20434;-41
2023/04/25 03:11:20;;;;;;;49.25;16.75;;;;;;;;;;5032110;28;20034;-41
2023/04/25 03:13:47;;;;;;;48.75;16.05;;;;;;;;;;5031833;28;20054;-41
2023/04/25 03:16:14;;;;;;;44.40;15.57;;;;;;;;;;5031971;28;20408;-41
2023/04/25 03:18:41;;;;;;;38.05;14.85;;;;;;;;;;5031866;28;20029;-41
2023/04/25 03:21:08;;;;;;;47.75;15.55;;;;;;;;;;5031968;28;20036;-41
2023/04/25 03:23:34;;;;;;;39.42;15.70;;;;;;;;;;5031750;28;20087;-41
2023/04/25 03:26:01;;;;;;;43.67;15.65;;;;;;;;;;5047211;28;20377;-41
2023/04/25 03:28:29;;;;;;;38.75;14.90;;;;;;;;;;5031874;28;20026;-41
2023/04/25 03:30:56;;;;;;;42.33;14.70;;;;;;;;;;5031032;28;20491;-41
2023/04/25 03:33:23;;;;;;;35.85;14.57;;;;;;;;;;5031713;28;20033;-41
2023/04/25 03:35:50;;;;;;;38.70;13.77;;;;;;;;;;5031669;28;20109;-41
2023/04/25 03:38:17;;;;;;;36.28;13.93;;;;;;;;;;5031792;28;20026;-41
2023/04/25 03:40:44;;;;;;;35.25;14.10;;;;;;;;;;5031726;28;20396;-41
2023/04/25 03:43:11;;;;;;;46.28;14.52;;;;;;;;;;5031750;28;20451;-41
2023/04/25 03:45:38;;;;;;;43.42;15.32;;;;;;;;;;5031656;28;20017;-40
2023/04/25 03:48:05;;;;;;;40.58;13.82;;;;;;;;;;5031703;28;20029;-41
2023/04/25 03:50:32;;;;;;;30.00;11.90;;;;;;;;;;5031670;28;20032;-42
2023/04/25 03:52:59;;;;;;;36.47;13.57;;;;;;;;;;5031480;28;20151;-40
2023/04/25 03:55:26;;;;;;;37.28;13.38;;;;;;;;;;5031624;28;20112;-41
2023/04/25 03:57:53;;;;;;;30.52;12.65;;;;;;;;;;5031497;28;20021;-40
2023/04/25 04:00:20;;;;;;;32.75;13.00;;;;;;;;;;5031482;28;20029;-41
2023/04/25 04:02:47;;;;;;;35.83;13.15;;;;;;;;;;5023388;28;20032;-41
2023/04/25 04:05:14;;;;;;;35.95;12.98;;;;;;;;;;5031456;28;20021;-41
2023/04/25 04:07:42;;;;;;;30.17;12.32;;;;;;;;;;5031524;28;20026;-41
2023/04/25 04:10:10;;;;;;;35.83;12.10;;;;;;;;;;5031336;28;20420;-41
2023/04/25 04:12:37;;;;;;;37.60;12.50;;;;;;;;;;5031484;28;20105;-41
2023/04/25 04:15:04;;;;;;;29.77;11.82;;;;;;;;;;5031340;28;20036;-41
2023/04/25 04:17:31;;;;;;;31.88;12.50;;;;;;;;;;5031348;28;20037;-41
2023/04/25 04:19:59;;;;;;;34.83;12.52;;;;;;;;;;5031285;28;20037;-41
2023/04/25 04:22:26;;;;;;;34.15;11.90;;;;;;;;;;5031265;28;20048;-41
2023/04/25 04:24:54;;;;;;;27.58;11.52;;;;;;;;;;5031157;28;20073;-42
2023/04/25 04:27:21;;;;;;;31.58;11.68;;;;;;;;;;5031203;28;20040;-41
2023/04/25 04:29:48;;;;;;;29.83;11.05;;;;;;;;;;5031482;28;20470;-41
2023/04/25 04:32:17;;;;;;;33.47;11.38;;;;;;;;;;5031380;28;20056;-42
2023/04/25 04:34:44;;;;;;;30.05;11.15;;;;;;;;;;5031058;28;20037;-41
2023/04/25 04:37:12;;;;;;;27.70;11.10;;;;;;;;;;5031060;28;20083;-41
2023/04/25 04:39:40;;;;;;;29.35;10.88;;;;;;;;;;5031047;28;20033;-43
2023/04/25 04:42:07;;;;;;;29.63;10.95;;;;;;;;;;5033890;28;20029;-41
2023/04/25 04:44:34;;;;;;;25.20;10.02;;;;;;;;;;5034293;28;20049;-42
2023/04/25 04:47:01;;;;;;;24.63;9.82;;;;;;;;;;5034699;28;20816;-42
2023/04/25 04:49:28;;;;;;;22.80;10.10;;;;;;;;;;5034825;28;20084;-41
2023/04/25 04:51:55;;;;;;;27.42;11.15;;;;;;;;;;5034764;28;20095;-41
2023/04/25 04:54:22;;;;;;;25.23;10.10;;;;;;;;;;5034509;28;20045;-43
2023/04/25 04:56:50;;;;;;;21.67;9.32;;;;;;;;;;5034661;28;20033;-41
2023/04/25 04:59:17;;;;;;;21.15;9.10;;;;;;;;;;5034604;28;20450;-41
2023/04/25 05:01:44;;;;;;;26.27;9.95;;;;;;;;;;5034514;28;20026;-41
2023/04/25 05:04:11;;;;;;;25.33;9.15;;;;;;;;;;5034283;28;20038;-41
2023/04/25 05:06:38;;;;;;;23.73;9.77;;;;;;;;;;5034451;28;20025;-41
2023/04/25 05:09:05;;;;;;;20.17;8.48;;;;;;;;;;5034303;28;20029;-41
2023/04/25 05:11:32;;;;;;;22.90;9.15;;;;;;;;;;5034281;28;20040;-41
2023/04/25 05:13:59;;;;;;;18.75;8.73;;;;;;;;;;5034141;28;20072;-41
2023/04/25 05:16:25;;;;;;;22.13;9.43;;;;;;;;;;5034229;28;20033;-41
2023/04/25 05:18:52;;;;;;;20.40;8.25;;;;;;;;;;5034194;28;20067;-41
2023/04/25 05:21:19;;;;;;;20.70;9.07;;;;;;;;;;5034088;28;20381;-41
2023/04/25 05:23:46;;;;;;;19.95;7.90;;;;;;;;;;5033935;28;20079;-41
2023/04/25 05:26:13;;;;;;;20.38;8.18;;;;;;;;;;5034013;28;20426;-42
2023/04/25 05:28:41;;;;;;;18.50;8.27;;;;;;;;;;5033977;28;20423;-41
2023/04/25 05:31:10;;;;;;;20.65;8.52;;;;;;;;;;5033966;28;20464;-41
2023/04/25 05:33:37;;;;;;;21.63;8.32;;;;;;;;;;5033896;28;20436;-41
2023/04/25 05:36:04;;;;;;;16.92;7.18;;;;;;;;;;5033759;28;20526;-41
2023/04/25 05:38:31;;;;;;;19.38;8.10;;;;;;;;;;5033847;28;20052;-42
2023/04/25 05:40:58;;;;;;;18.30;7.80;;;;;;;;;;5033782;28;20040;-41
2023/04/25 05:43:25;;;;;;;18.48;7.22;;;;;;;;;;5033625;28;20088;-40
2023/04/25 05:45:51;;;;;;;18.40;7.15;;;;;;;;;;5033761;28;20029;-41
2023/04/25 05:48:18;;;;;;;16.58;6.75;;;;;;;;;;5033715;28;20033;-41
2023/04/25 05:50:45;;;;;;;15.45;6.97;;;;;;;;;;5033869;28;20418;-41
2023/04/25 05:53:12;;;;;;;16.27;6.80;;;;;;;;;;5032562;28;20051;-41
2023/04/25 05:55:39;;;;;;;13.98;6.82;;;;;;;;;;5033481;28;20566;-41
2023/04/25 05:58:07;;;;;;;14.93;6.57;;;;;;;;;;5033460;28;20036;-41
2023/04/25 06:00:34;;;;;;;17.50;6.65;;;;;;;;;;5033472;28;20049;-41
2023/04/25 06:03:01;;;;;;;13.73;6.60;;;;;;;;;;5031824;28;20091;-41
2023/04/25 06:05:28;;;;;;;15.50;6.50;;;;;;;;;;5033362;28;20029;-41
2023/04/25 06:07:55;;;;;;;18.10;6.80;;;;;;;;;;5033378;28;20108;-41
2023/04/25 06:10:22;;;;;;;14.73;6.30;;;;;;;;;;5033288;28;20087;-43
2023/04/25 06:12:50;;;;;;;11.00;6.15;;;;;;;;;;5033139;28;20029;-41
2023/04/25 06:15:17;;;;;;;19.50;6.88;;;;;;;;;;5033146;28;20116;-41
2023/04/25 06:17:44;;;;;;;12.32;6.03;;;;;;;;;;5033131;28;20017;-40
2023/04/25 06:20:11;;;;;;;13.05;5.85;;;;;;;;;;5032892;28;20029;-41
2023/04/25 06:22:38;;;;;;;17.77;6.53;;;;;;;;;;5032971;28;20037;-40
2023/04/25 06:25:06;;;;;;;13.98;5.53;;;;;;;;;;5032789;28;20116;-41
2023/04/25 06:27:34;;;;;;;13.43;5.55;;;;;;;;;;5032776;28;20029;-41
2023/04/25 06:30:01;;;;;;;16.65;6.32;;;;;;;;;;5032795;28;20479;-41
2023/04/25 06:32:29;;;;;;;13.57;6.15;;;;;;;;;;5032541;28;20079;-41
2023/04/25 06:34:56;;;;;;;15.23;5.53;;;;;;;;;;5032246;28;20034;-41
2023/04/25 06:37:23;;;;;;;14.32;5.63;;;;;;;;;;5032412;28;20112;-41
2023/04/25 06:39:50;;;;;;;12.40;5.53;;;;;;;;;;5032601;28;20113;-41
2023/04/25 06:42:17;;;;;;;11.02;4.90;;;;;;;;;;5032411;28;20033;-41
2023/04/25 06:44:44;;;;;;;10.88;4.90;;;;;;;;;;5032287;28;20499;-41
2023/04/25 06:47:11;;;;;;;10.88;5.03;;;;;;;;;;5032400;28;20480;-41
2023/04/25 06:49:38;;;;;;;9.25;5.10;;;;;;;;;;5032380;28;20563;-41
2023/04/25 06:52:05;;;;;;;14.32;5.57;;;;;;;;;;5032463;28;20064;-41
2023/04/25 06:54:32;;;;;;;11.38;4.80;;;;;;;;;;5031499;28;20044;-41
2023/04/25 06:57:00;;;;;;;10.75;4.78;;;;;;;;;;5005330;28;20064;-41
2023/04/25 06:59:27;;;;;;;10.52;4.57;;;;;;;;;;5033590;28;20078;-41
2023/04/25 07:01:54;;;;;;;9.90;4.70;;;;;;;;;;5041734;28;20476;-41
2023/04/25 07:04:21;;;;;;;11.32;4.95;;;;;;;;;;5031122;28;20048;-41
2023/04/25 07:06:49;;;;;;;14.82;5.05;;;;;;;;;;5042725;28;20037;-41
2023/04/25 07:09:16;;;;;;;11.30;5.00;;;;;;;;;;5031866;28;20064;-42
2023/04/25 07:11:43;;;;;;;10.38;5.05;;;;;;;;;;5031666;28;20034;-41
2023/04/25 07:14:10;;;;;;;9.45;4.90;;;;;;;;;;5031866;28;20033;-41
2023/04/25 07:16:37;;;;;;;10.75;4.53;;;;;;;;;;5031607;28;20516;-41
2023/04/25 07:19:04;;;;;;;11.05;4.50;;;;;;;;;;5031688;28;20048;-41
2023/04/25 07:21:31;;;;;;;11.77;4.57;;;;;;;;;;5031436;28;20029;-41
2023/04/25 07:23:58;;;;;;;10.93;4.78;;;;;;;;;;5031692;28;20034;-42
2023/04/25 07:26:25;;;;;;;12.57;4.90;;;;;;;;;;5031616;28;20029;-41
2023/04/25 07:28:54;;;;;;;9.30;4.00;;;;;;;;;;5031637;28;20487;-41
2023/04/25 07:31:21;;;;;;;10.38;4.50;;;;;;;;;;5031411;28;20040;-40
2023/04/25 07:33:48;;;;;;;9.82;4.00;;;;;;;;;;5031590;28;20025;-40
2023/04/25 07:36:15;;;;;;;9.75;3.78;;;;;;;;;;5031134;28;20045;-41
2023/04/25 07:38:42;;;;;;;7.68;4.00;;;;;;;;;;5031648;28;20156;-41
2023/04/25 07:41:09;;;;;;;11.18;4.57;;;;;;;;;;5031197;28;20039;-41
2023/04/25 07:43:36;;;;;;;9.88;4.43;;;;;;;;;;5031360;28;20091;-42
2023/04/25 07:46:03;;;;;;;7.32;3.42;;;;;;;;;;5031185;28;20399;-42
2023/04/25 07:48:30;;;;;;;9.88;3.80;;;;;;;;;;5040584;28;20028;-40
2023/04/25 07:50:57;;;;;;;10.85;4.00;;;;;;;;;;5051362;28;20039;-41
2023/04/25 07:53:24;;;;;;;10.05;3.63;;;;;;;;;;5031509;28;20078;-41
2023/04/25 07:55:51;;;;;;;10.05;3.80;;;;;;;;;;5031440;28;20025;-41
2023/04/25 07:58:21;;;;;;;12.70;3.50;;;;;;;;;;5029037;28;20185;-41
2023/04/25 08:00:48;;;;;;;6.20;3.42;;;;;;;;;;5031276;28;20044;-42
2023/04/25 08:03:15;;;;;;;8.15;3.85;;;;;;;;;;5030914;28;20120;-40
2023/04/25 08:05:42;;;;;;;8.88;3.67;;;;;;;;;;5030794;28;20036;-41
2023/04/25 08:08:10;;;;;;;8.27;3.50;;;;;;;;;;5030985;28;20403;-40
2023/04/25 08:10:37;;;;;;;7.40;3.55;;;;;;;;;;5031498;28;20030;-41
2023/04/25 08:13:04;;;;;;;9.23;3.78;;;;;;;;;;5013140;28;20399;-41
2023/04/25 08:15:31;;;;;;;7.90;3.30;;;;;;;;;;5031377;28;20025;-41
2023/04/25 08:17:59;;;;;;;7.85;3.63;;;;;;;;;;5034928;28;20478;-41
2023/04/25 08:20:26;;;;;;;9.15;3.75;;;;;;;;;;5033916;28;20034;-41
2023/04/25 08:22:53;;;;;;;9.95;4.00;;;;;;;;;;5016273;28;20057;-42
2023/04/25 08:25:20;;;;;;;7.03;3.47;;;;;;;;;;5034952;28;20500;-42
2023/04/25 08:27:47;;;;;;;5.93;3.00;;;;;;;;;;5026819;28;20060;-41
2023/04/25 08:30:14;;;;;;;8.02;3.92;;;;;;;;;;5034991;28;20422;-41
2023/04/25 08:32:41;;;;;;;7.55;4.13;;;;;;;;;;5034524;28;20376;-41
2023/04/25 08:35:08;;;;;;;6.93;3.42;;;;;;;;;;5034952;28;20567;-41
2023/04/25 08:37:36;;;;;;;5.65;3.20;;;;;;;;;;5034120;28;20499;-41
2023/04/25 08:40:06;;;;;;;7.20;3.33;;;;;;;;;;5034891;28;20033;-41
2023/04/25 08:42:35;;;;;;;5.15;2.63;;;;;;;;;;5034299;28;20029;-42
2023/04/25 08:45:05;;;;;;;3.97;2.85;;;;;;;;;;5034474;28;20120;-40
2023/04/25 08:47:37;;;;;;;6.40;2.92;;;;;;;;;;5034352;28;20040;-41
2023/04/25 08:50:05;;;;;;;8.32;3.08;;;;;;;;;;5034585;28;20364;-41
2023/04/25 08:52:37;;;;;;;8.40;3.10;;;;;;;;;;5034102;28;20079;-41
2023/04/25 08:55:04;;;;;;;5.72;3.00;;;;;;;;;;5034654;28;20425;-41
2023/04/25 08:57:32;;;;;;;6.28;3.10;;;;;;;;;;5034147;28;20104;-41
2023/04/25 08:59:59;;;;;;;11.30;3.20;;;;;;;;;;5034335;28;20080;-41
2023/04/25 09:02:26;;;;;;;7.10;3.00;;;;;;;;;;5034075;28;20431;-41
2023/04/25 09:04:55;;;;;;;8.48;2.95;;;;;;;;;;5045849;28;20087;-41
2023/04/25 09:07:22;;;;;;;5.40;2.75;;;;;;;;;;5043109;28;20022;-40
2023/04/25 09:09:49;;;;;;;5.55;3.13;;;;;;;;;;5033540;28;20034;-41
2023/04/25 09:12:16;;;;;;;6.53;3.03;;;;;;;;;;5033856;28;20617;-41
2023/04/25 09:14:43;;;;;;;6.80;2.67;;;;;;;;;;5033767;28;20026;-41
2023/04/25 09:17:10;;;;;;;5.07;2.63;;;;;;;;;;5032051;28;20038;-40
2023/04/25 09:19:41;;;;;;;5.53;2.63;;;;;;;;;;5033448;28;20033;-41
2023/04/25 09:22:08;;;;;;;9.68;3.30;;;;;;;;;;5033251;28;20061;-41
2023/04/25 09:24:39;;;;;;;9.85;3.42;;;;;;;;;;5033169;28;20041;-40
2023/04/25 09:27:10;;;;;;;10.85;4.13;;;;;;;;;;5031769;28;20033;-41
2023/04/25 09:29:38;;;;;;;9.60;3.88;;;;;;;;;;5030034;28;20045;-40
2023/04/25 09:32:22;;;;;;;11.70;3.67;;;;;;;;;;5032355;28;20022;-40
2023/04/25 09:34:51;;;;;;;12.70;3.92;;;;;;;;;;5031525;28;20473;-41
2023/04/25 09:37:19;;;;;;;15.18;4.32;;;;;;;;;;5031490;28;20073;-41
2023/04/25 09:39:49;;;;;;;17.95;4.25;;;;;;;;;;5024547;28;20031;-40
2023/04/25 09:42:17;;;;;;;13.00;4.43;;;;;;;;;;5032057;28;20033;-40
2023/04/25 09:44:45;;;;;;;13.35;3.70;;;;;;;;;;5032051;28;20120;-43
2023/04/25 09:47:13;;;;;;;11.95;4.05;;;;;;;;;;5029425;28;20033;-41
2023/04/25 09:49:42;;;;;;;14.05;4.50;;;;;;;;;;5032605;28;20061;-41
2023/04/25 09:52:09;;;;;;;16.33;5.25;;;;;;;;;;5033002;28;20437;-41
2023/04/25 09:54:36;;;;;;;16.10;5.47;;;;;;;;;;5033450;28;20025;-40
2023/04/25 09:57:07;;;;;;;12.55;4.53;;;;;;;;;;5033048;28;20099;-40
2023/04/25 09:59:37;;;;;;;18.17;5.45;;;;;;;;;;5033355;28;20487;-41
2023/04/25 10:02:04;;;;;;;20.90;5.65;;;;;;;;;;5033035;28;20028;-41
2023/04/25 10:04:34;;;;;;;17.90;5.18;;;;;;;;;;5033050;28;20060;-41
2023/04/25 10:07:01;;;;;;;13.45;5.20;;;;;;;;;;5032937;28;20480;-41
2023/04/25 10:09:32;;;;;;;15.30;4.95;;;;;;;;;;5033114;28;20480;-40
2023/04/25 10:11:59;;;;;;;11.63;4.60;;;;;;;;;;5033033;28;20037;-41
2023/04/25 10:14:27;;;;;;;17.33;5.00;;;;;;;;;;5027672;28;20033;-41
2023/04/25 10:16:55;;;;;;;15.55;5.43;;;;;;;;;;5032805;28;20493;-40
2023/04/25 10:19:22;;;;;;;17.17;5.47;;;;;;;;;;5032611;28;20376;-41
2023/04/25 10:21:52;;;;;;;14.82;4.78;;;;;;;;;;5032747;28;20383;-40
2023/04/25 10:24:20;;;;;;;12.90;4.88;;;;;;;;;;5032369;28;20067;-42
2023/04/25 10:26:47;;;;;;;9.25;4.15;;;;;;;;;;5024707;28;20084;-41
2023/04/25 10:29:22;;;;;;;13.93;4.60;;;;;;;;;;5032079;28;20377;-40
2023/04/25 10:31:50;;;;;;;15.07;5.07;;;;;;;;;;5029924;28;20499;-41
2023/04/25 10:34:20;;;;;;;12.43;4.95;;;;;;;;;;5032416;28;20029;-41
2023/04/25 10:36:54;;;;;;;13.88;5.10;;;;;;;;;;5024444;28;20493;-41
2023/04/25 10:39:25;;;;;;;10.77;4.55;;;;;;;;;;5031735;28;20033;-42
2023/04/25 10:41:58;;;;;;;12.77;4.53;;;;;;;;;;5029740;28;20026;-41
2023/04/25 10:44:29;;;;;;;20.10;4.88;;;;;;;;;;5027449;28;20040;-41
2023/04/25 10:46:59;;;;;;;16.70;4.28;;;;;;;;;;5031642;28;20079;-40
2023/04/25 10:49:31;;;;;;;14.35;4.93;;;;;;;;;;5032035;28;20033;-40
2023/04/25 10:52:14;;;;;;;16.13;4.32;;;;;;;;;;5032126;28;20029;-40
2023/04/25 10:54:52;;;;;;;20.75;5.20;;;;;;;;;;5030612;28;20112;-41
2023/04/25 10:57:29;;;;;;;9.40;4.35;;;;;;;;;;5032099;28;20022;-41
2023/04/25 11:00:06;;;;;;;14.43;4.55;;;;;;;;;;5012402;28;20014;-40
2023/04/25 11:02:37;;;;;;;14.52;4.32;;;;;;;;;;5013810;28;20021;-40
2023/04/25 11:05:05;;;;;;;18.75;4.78;;;;;;;;;;5032041;28;20388;-41
2023/04/25 11:07:39;;;;;;;12.23;4.45;;;;;;;;;;5031364;28;20037;-41
2023/04/25 11:10:06;;;;;;;16.15;4.78;;;;;;;;;;5020144;28;20076;-41
2023/04/25 11:12:33;;;;;;;35.92;6.22;;;;;;;;;;5031431;28;20028;-41
2023/04/25 11:15:04;;;;;;;24.00;5.03;;;;;;;;;;5031632;28;20079;-41
2023/04/25 11:17:31;;;;;;;20.67;4.55;;;;;;;;;;5031249;28;20032;-45
2023/04/25 11:19:58;;;;;;;25.38;4.47;;;;;;;;;;5031582;28;20026;-43
2023/04/25 11:22:25;;;;;;;60.17;7.35;;;;;;;;;;5031504;28;20041;-41
2023/04/25 11:24:52;;;;;;;56.42;8.38;;;;;;;;;;5031115;28;20044;-42
2023/04/25 11:27:20;;;;;;;53.42;7.80;;;;;;;;;;5027290;28;20029;-41
2023/04/25 11:29:50;;;;;;;48.05;7.80;;;;;;;;;;5031280;28;20091;-41
2023/04/25 11:32:17;;;;;;;39.78;7.70;;;;;;;;;;5028909;28;20028;-41
2023/04/25 11:34:45;;;;;;;43.85;7.30;;;;;;;;;;5031027;28;20080;-41
2023/04/25 11:37:12;;;;;;;32.25;7.13;;;;;;;;;;5031164;28;20057;-41
2023/04/25 11:39:39;;;;;;;23.95;7.38;;;;;;;;;;5030363;28;20029;-41
2023/04/25 11:42:06;;;;;;;32.85;7.88;;;;;;;;;;5031283;28;20144;-41
2023/04/25 11:44:33;;;;;;;29.40;7.13;;;;;;;;;;5030845;28;20041;-43
2023/04/25 11:47:00;;;;;;;55.30;8.77;;;;;;;;;;5031239;28;20135;-41
2023/04/25 11:49:31;;;;;;;72.70;9.10;;;;;;;;;;5026591;28;20418;-40
2023/04/25 11:51:59;;;;;;;34.78;8.27;;;;;;;;;;5029933;28;20094;-39
2023/04/25 11:54:26;;;;;;;260.67;21.45;;;;;;;;;;5030765;28;20117;-41
2023/04/25 11:56:53;;;;;;;80.57;11.43;;;;;;;;;;5031033;28;20388;-40
2023/04/25 11:59:24;;;;;;;87.75;10.48;;;;;;;;;;5024606;28;20396;-41
2023/04/25 12:01:51;;;;;;;71.00;9.85;;;;;;;;;;5030992;28;20025;-40
2023/04/25 12:04:20;;;;;;;76.30;10.88;;;;;;;;;;5030192;28;20038;-41
2023/04/25 12:06:48;;;;;;;76.55;12.15;;;;;;;;;;5030877;28;20181;-41
2023/04/25 12:09:17;;;;;;;159.80;15.38;;;;;;;;;;5030511;28;20075;-42
2023/04/25 12:11:45;;;;;;;1378.93;108.22;;;;;;;;;;5027756;28;20381;-42
2023/04/25 12:14:13;;;;;;;437.88;36.63;;;;;;;;;;5025914;28;20427;-42
2023/04/25 12:16:46;;;;;;;217.43;22.27;;;;;;;;;;5026353;28;20495;-41
2023/04/25 12:19:16;;;;;;;133.65;15.38;;;;;;;;;;5030728;28;20034;-41
2023/04/25 12:21:44;;;;;;;101.40;14.10;;;;;;;;;;5030670;28;20752;-44
2023/04/25 12:24:13;;;;;;;166.05;20.88;;;;;;;;;;5029673;28;20095;-41
2023/04/25 12:26:49;;;;;;;139.52;19.38;;;;;;;;;;5030512;28;20033;-41
2023/04/25 12:29:17;;;;;;;113.57;16.10;;;;;;;;;;5030623;28;20045;-40
2023/04/25 12:31:45;;;;;;;108.15;18.33;;;;;;;;;;5030641;28;20025;-40
2023/04/25 12:34:12;;;;;;;178.50;21.77;;;;;;;;;;5027178;28;20476;-40
2023/04/25 12:36:39;;;;;;;174.73;25.00;;;;;;;;;;5030348;28;20111;-41
2023/04/25 12:39:07;;;;;;;191.95;24.15;;;;;;;;;;5030499;28;20061;-41
2023/04/25 12:41:34;;;;;;;189.98;26.75;;;;;;;;;;5030579;28;20027;-42
2023/04/25 12:44:01;;;;;;;201.25;27.17;;;;;;;;;;5030312;28;20051;-40
2023/04/25 12:46:28;;;;;;;194.73;28.02;;;;;;;;;;5029919;28;20037;-41
2023/04/25 12:48:55;;;;;;;175.02;26.25;;;;;;;;;;5029905;28;20029;-40
2023/04/25 12:51:24;;;;;;;179.25;26.88;;;;;;;;;;5030446;28;20451;-41
2023/04/25 12:53:52;;;;;;;163.15;24.88;;;;;;;;;;5030178;28;20365;-39
2023/04/25 12:56:19;;;;;;;152.38;23.27;;;;;;;;;;5025239;28;20034;-40
2023/04/25 12:58:47;;;;;;;154.07;23.75;;;;;;;;;;5029526;28;20036;-39
2023/04/25 13:01:15;;;;;;;129.10;22.67;;;;;;;;;;5025317;28;20112;-39
2023/04/25 13:03:42;;;;;;;128.45;22.23;;;;;;;;;;5048119;28;20045;-40
2023/04/25 13:06:09;;;;;;;118.05;20.10;;;;;;;;;;5033976;28;20034;-39
2023/04/25 13:08:36;;;;;;;223.75;28.92;;;;;;;;;;5032305;28;20108;-40
2023/04/25 13:11:04;;;;;;;183.32;24.63;;;;;;;;;;5034018;28;20040;-40
2023/04/25 13:13:31;;;;;;;152.70;22.40;;;;;;;;;;5033515;28;20026;-39
2023/04/25 13:15:58;;;;;;;115.05;19.77;;;;;;;;;;5032586;28;20519;-39
2023/04/25 13:18:28;;;;;;;120.03;21.90;;;;;;;;;;5033235;28;20029;-41
2023/04/25 13:20:55;;;;;;;107.68;20.10;;;;;;;;;;5025970;28;20026;-40
2023/04/25 13:23:22;;;;;;;110.32;22.33;;;;;;;;;;5032968;28;20380;-41
2023/04/25 13:25:49;;;;;;;100.65;21.20;;;;;;;;;;5006280;28;20699;-40
2023/04/25 13:28:16;;;;;;;103.32;21.77;;;;;;;;;;5029251;28;20033;-39
2023/04/25 13:30:43;;;;;;;91.30;19.52;;;;;;;;;;5028875;28;20021;-40
2023/04/25 13:33:10;;;;;;;89.47;19.92;;;;;;;;;;5032885;28;20091;-40
2023/04/25 13:35:38;;;;;;;94.95;19.10;;;;;;;;;;5032479;28;20021;-40
2023/04/25 13:38:05;;;;;;;70.70;17.98;;;;;;;;;;5033187;28;20088;-40
2023/04/25 13:40:32;;;;;;;86.10;19.45;;;;;;;;;;5032546;28;20116;-40
2023/04/25 13:42:59;;;;;;;90.60;18.50;;;;;;;;;;5032628;28;20479;-40
2023/04/25 13:45:26;;;;;;;64.88;17.35;;;;;;;;;;5032629;28;20029;-40
2023/04/25 13:47:53;;;;;;;69.00;18.08;;;;;;;;;;5032659;28;20018;-40
2023/04/25 13:50:21;;;;;;;63.88;15.98;;;;;;;;;;5032539;28;20017;-41
2023/04/25 13:52:48;;;;;;;55.90;15.98;;;;;;;;;;5019156;28;20036;-40
2023/04/25 13:55:15;;;;;;;71.65;17.08;;;;;;;;;;5031694;28;20025;-42
2023/04/25 13:57:42;;;;;;;63.97;16.73;;;;;;;;;;5077181;23;20447;-42
2023/04/25 14:00:09;;;;;;;58.88;15.80;;;;;;;;;;5075066;28;20044;-36
2023/04/25 14:02:37;;;;;;;64.68;16.08;;;;;;;;;;5084713;28;20567;-38
2023/04/25 14:05:07;;;;;;;56.33;14.82;;;;;;;;;;5091563;28;20081;-34
2023/04/25 14:07:35;;;;;;;63.25;15.38;;;;;;;;;;5089045;28;20116;-39
2023/04/25 14:10:04;;;;;;;52.58;12.13;;;;;;;;;;5091641;28;20062;-36
2023/04/25 14:12:31;;;;;;;45.70;9.18;;;;;;;;;;5091421;28;20032;-35
2023/04/25 14:14:58;;;;;;;45.13;8.43;;;;;;;;;;5090829;28;20099;-33
2023/04/25 14:17:25;;;;;;;39.67;7.90;;;;;;;;;;5091117;28;20028;-40
2023/04/25 14:19:52;;;;;;;30.08;7.20;;;;;;;;;;5088943;28;20380;-35
2023/04/25 14:22:19;;;;;;;31.77;7.35;;;;;;;;;;5091362;28;20020;-35
2023/04/25 14:24:46;;;;;;;35.00;7.78;;;;;;;;;;5091443;28;20158;-36
2023/04/25 14:27:13;;;;;;;34.38;6.88;;;;;;;;;;5072388;28;20017;-36